Time;durP1;ratioP1;P1;durP2;ratioP2;P2;SDS_P1;SDS_P2;PMS_P1;PMS_P2;Temp;Humidity;BMP_temperature;BMP_pressure;BME280_temperature;BME280_humidity;BME280_pressure;Samples;Min_cycle;Max_cycle;Signal;HPM_P1;HPM_P2
2024/03/26 00:00:31;;;;;;;7.33;5.93;;;;;;;;;;6070961;23;20168;-84
2024/03/26 00:03:00;;;;;;;8.57;6.23;;;;;;;;;;6094738;23;20172;-84
2024/03/26 00:05:29;;;;;;;6.60;5.67;;;;;;;;;;6071414;23;20203;-84
2024/03/26 00:08:04;;;;;;;8.73;6.00;;;;;;;;;;6096163;23;20176;-83
2024/03/26 00:10:31;;;;;;;8.03;6.40;;;;;;;;;;6072747;23;20168;-83
2024/03/26 00:12:58;;;;;;;8.03;6.10;;;;;;;;;;6072485;23;20185;-84
2024/03/26 00:15:24;;;;;;;7.13;5.90;;;;;;;;;;6072544;23;20195;-84
2024/03/26 00:17:53;;;;;;;8.50;6.63;;;;;;;;;;6072307;23;20243;-84
2024/03/26 00:20:19;;;;;;;8.90;6.50;;;;;;;;;;6049176;23;20254;-83
2024/03/26 00:22:46;;;;;;;10.00;6.13;;;;;;;;;;6072869;23;20519;-84
2024/03/26 00:25:12;;;;;;;9.33;6.50;;;;;;;;;;6097031;23;20164;-84
2024/03/26 00:27:38;;;;;;;8.57;6.50;;;;;;;;;;6072317;23;20176;-84
2024/03/26 00:30:05;;;;;;;8.47;6.43;;;;;;;;;;6072124;23;20656;-83
2024/03/26 00:32:31;;;;;;;8.67;6.77;;;;;;;;;;6100541;23;20331;-83
2024/03/26 00:35:01;;;;;;;7.20;6.30;;;;;;;;;;6053568;23;20160;-84
2024/03/26 00:37:28;;;;;;;7.50;6.20;;;;;;;;;;6077744;23;20163;-84
2024/03/26 00:39:55;;;;;;;10.07;6.90;;;;;;;;;;6077288;23;20643;-84
2024/03/26 00:42:21;;;;;;;9.37;6.83;;;;;;;;;;6053784;23;20218;-86
2024/03/26 00:44:47;;;;;;;8.37;6.40;;;;;;;;;;6077414;23;20254;-85
2024/03/26 00:47:13;;;;;;;9.27;6.70;;;;;;;;;;6101418;23;20508;-85
2024/03/26 00:49:43;;;;;;;9.07;6.97;;;;;;;;;;6101301;23;20166;-84
2024/03/26 00:52:09;;;;;;;7.80;6.50;;;;;;;;;;6101773;23;20196;-85
2024/03/26 00:54:40;;;;;;;7.37;6.57;;;;;;;;;;6101626;23;20178;-85
2024/03/26 00:57:09;;;;;;;10.10;7.40;;;;;;;;;;6078153;23;20163;-84
2024/03/26 00:59:41;;;;;;;8.63;6.33;;;;;;;;;;6055717;23;20171;-84
2024/03/26 01:02:19;;;;;;;10.80;7.13;;;;;;;;;;6055074;23;20202;-85
2024/03/26 01:04:49;;;;;;;7.40;6.60;;;;;;;;;;6077405;23;20159;-84
2024/03/26 01:07:16;;;;;;;12.47;7.77;;;;;;;;;;6076956;23;20214;-85
2024/03/26 01:09:43;;;;;;;12.90;8.33;;;;;;;;;;6053094;23;20171;-83
2024/03/26 01:12:10;;;;;;;13.97;8.80;;;;;;;;;;6053206;23;20257;-84
2024/03/26 01:14:37;;;;;;;14.80;8.83;;;;;;;;;;6053869;23;20569;-85
2024/03/26 01:17:05;;;;;;;16.77;9.53;;;;;;;;;;6101272;23;20187;-85
2024/03/26 01:19:32;;;;;;;16.73;9.47;;;;;;;;;;6076986;23;20172;-84
2024/03/26 01:22:00;;;;;;;17.07;9.93;;;;;;;;;;6077841;23;20171;-83
2024/03/26 01:24:30;;;;;;;21.27;10.73;;;;;;;;;;6053179;23;20194;-84
2024/03/26 01:26:56;;;;;;;22.90;11.03;;;;;;;;;;6077053;23;20168;-83
2024/03/26 01:29:29;;;;;;;25.80;14.67;;;;;;;;;;6076945;23;20171;-84
2024/03/26 01:31:55;;;;;;;43.63;23.00;;;;;;;;;;6100631;23;20198;-85
2024/03/26 01:34:23;;;;;;;59.03;32.07;;;;;;;;;;6071806;23;20663;-83
2024/03/26 01:36:52;;;;;;;46.50;25.97;;;;;;;;;;6096625;23;20167;-85
2024/03/26 01:39:18;;;;;;;24.93;14.53;;;;;;;;;;6096250;23;20168;-83
2024/03/26 01:41:45;;;;;;;20.23;12.13;;;;;;;;;;6095784;23;20208;-85
2024/03/26 01:44:11;;;;;;;10.80;7.87;;;;;;;;;;6071781;23;20180;-85
2024/03/26 01:46:37;;;;;;;15.10;9.50;;;;;;;;;;6072371;23;20175;-84
2024/03/26 01:49:07;;;;;;;14.20;9.27;;;;;;;;;;6071928;23;20592;-85
2024/03/26 01:51:34;;;;;;;10.20;8.00;;;;;;;;;;6072115;23;20247;-84
2024/03/26 01:54:01;;;;;;;7.40;6.37;;;;;;;;;;6047631;23;20188;-84
2024/03/26 01:56:28;;;;;;;10.07;6.43;;;;;;;;;;6072005;23;20252;-85
2024/03/26 01:58:55;;;;;;;7.70;6.17;;;;;;;;;;6071303;23;20160;-87
2024/03/26 02:01:21;;;;;;;6.97;5.97;;;;;;;;;;6048589;23;20165;-86
2024/03/26 02:03:54;;;;;;;8.53;6.60;;;;;;;;;;6049203;23;20179;-87
2024/03/26 02:06:20;;;;;;;7.10;5.40;;;;;;;;;;6072470;23;20173;-84
2024/03/26 02:08:48;;;;;;;7.07;5.33;;;;;;;;;;6072454;23;20180;-86
2024/03/26 02:11:15;;;;;;;6.67;5.03;;;;;;;;;;6095739;23;20165;-83
2024/03/26 02:13:45;;;;;;;7.40;6.10;;;;;;;;;;6095562;23;20267;-83
2024/03/26 02:16:15;;;;;;;7.30;5.40;;;;;;;;;;6048840;23;20183;-84
2024/03/26 02:18:41;;;;;;;7.50;5.37;;;;;;;;;;6096073;23;20168;-85
2024/03/26 02:21:06;;;;;;;5.80;5.20;;;;;;;;;;6096270;23;20175;-84
2024/03/26 02:23:32;;;;;;;6.20;5.23;;;;;;;;;;6048138;23;20176;-84
2024/03/26 02:26:01;;;;;;;5.70;4.83;;;;;;;;;;6095849;23;20176;-84
2024/03/26 02:28:27;;;;;;;6.80;4.77;;;;;;;;;;6095347;23;20164;-85
2024/03/26 02:30:55;;;;;;;5.60;4.80;;;;;;;;;;6095873;23;20255;-84
2024/03/26 02:33:22;;;;;;;5.40;4.40;;;;;;;;;;6094907;23;20208;-83
2024/03/26 02:35:53;;;;;;;5.67;4.70;;;;;;;;;;6096409;23;20168;-85
2024/03/26 02:38:19;;;;;;;5.00;4.47;;;;;;;;;;6071698;23;20251;-86
2024/03/26 02:40:45;;;;;;;5.77;4.60;;;;;;;;;;6072084;23;20192;-84
2024/03/26 02:43:15;;;;;;;5.60;4.63;;;;;;;;;;6095872;23;20164;-83
2024/03/26 02:45:41;;;;;;;5.90;4.53;;;;;;;;;;6047260;23;20187;-82
2024/03/26 02:48:08;;;;;;;6.47;4.67;;;;;;;;;;6071226;23;20176;-84
2024/03/26 02:50:43;;;;;;;5.30;4.43;;;;;;;;;;6071987;23;20231;-83
2024/03/26 02:53:12;;;;;;;4.90;3.97;;;;;;;;;;6094433;23;20251;-83
2024/03/26 02:55:39;;;;;;;5.10;4.27;;;;;;;;;;6071429;23;20175;-84
2024/03/26 02:58:04;;;;;;;4.47;4.03;;;;;;;;;;6095266;23;20300;-84
2024/03/26 03:00:36;;;;;;;4.73;4.13;;;;;;;;;;6094531;23;20222;-83
2024/03/26 03:03:02;;;;;;;4.67;4.17;;;;;;;;;;6047362;23;20702;-85
2024/03/26 03:05:29;;;;;;;5.43;4.20;;;;;;;;;;6095425;23;20212;-86
2024/03/26 03:07:55;;;;;;;6.03;4.47;;;;;;;;;;6095389;23;20226;-81
2024/03/26 03:10:22;;;;;;;6.30;5.10;;;;;;;;;;6071549;23;20179;-84
2024/03/26 03:12:48;;;;;;;6.13;4.73;;;;;;;;;;6119885;23;20279;-85
2024/03/26 03:15:17;;;;;;;5.83;5.23;;;;;;;;;;6095357;23;20164;-83
2024/03/26 03:17:46;;;;;;;6.00;4.87;;;;;;;;;;6095797;23;20169;-83
2024/03/26 03:20:13;;;;;;;4.50;4.10;;;;;;;;;;6047517;23;20476;-83
2024/03/26 03:22:39;;;;;;;4.83;4.33;;;;;;;;;;6071315;23;20176;-86
2024/03/26 03:25:07;;;;;;;5.30;4.33;;;;;;;;;;6047813;23;20303;-86
2024/03/26 03:27:33;;;;;;;5.93;4.30;;;;;;;;;;6095212;23;20165;-86
2024/03/26 03:29:59;;;;;;;4.53;4.10;;;;;;;;;;6047843;23;20223;-84
2024/03/26 03:32:26;;;;;;;5.23;4.43;;;;;;;;;;6074814;23;20227;-86
2024/03/26 03:34:55;;;;;;;5.50;4.10;;;;;;;;;;6076995;23;20242;-83
2024/03/26 03:37:21;;;;;;;5.17;4.33;;;;;;;;;;6076448;23;20183;-83
2024/03/26 03:39:48;;;;;;;4.43;3.80;;;;;;;;;;6052201;23;20607;-83
2024/03/26 03:42:13;;;;;;;5.90;4.73;;;;;;;;;;6076020;23;20202;-85
2024/03/26 03:44:39;;;;;;;4.50;4.10;;;;;;;;;;6100369;23;20192;-86
2024/03/26 03:47:06;;;;;;;5.13;4.33;;;;;;;;;;6051877;23;20172;-86
2024/03/26 03:49:32;;;;;;;5.10;4.37;;;;;;;;;;6100015;23;20199;-85
2024/03/26 03:52:03;;;;;;;5.27;4.40;;;;;;;;;;6076413;23;20168;-83
2024/03/26 03:54:31;;;;;;;6.33;4.80;;;;;;;;;;6099904;23;20623;-88
2024/03/26 03:57:01;;;;;;;8.40;4.97;;;;;;;;;;6099926;23;20191;-83
2024/03/26 03:59:28;;;;;;;5.53;4.20;;;;;;;;;;6099568;23;20163;-84
2024/03/26 04:01:59;;;;;;;5.83;4.73;;;;;;;;;;6076357;23;20658;-86
2024/03/26 04:04:25;;;;;;;4.93;4.43;;;;;;;;;;6076347;23;20203;-85
2024/03/26 04:06:51;;;;;;;10.03;4.73;;;;;;;;;;6051651;23;20167;-84
2024/03/26 04:09:21;;;;;;;7.03;4.50;;;;;;;;;;6051708;23;20266;-86
2024/03/26 04:11:49;;;;;;;5.20;4.20;;;;;;;;;;6052074;23;20156;-84
2024/03/26 04:14:16;;;;;;;4.57;4.07;;;;;;;;;;6051909;23;20199;-86
2024/03/26 04:16:46;;;;;;;4.67;3.80;;;;;;;;;;6051962;23;20164;-84
2024/03/26 04:19:13;;;;;;;5.10;3.80;;;;;;;;;;6099920;23;20633;-84
2024/03/26 04:21:39;;;;;;;4.83;4.33;;;;;;;;;;6075438;23;20167;-84
2024/03/26 04:24:08;;;;;;;4.83;3.97;;;;;;;;;;6075210;23;20174;-84
2024/03/26 04:26:37;;;;;;;4.63;4.17;;;;;;;;;;6099517;23;20171;-83
2024/03/26 04:29:04;;;;;;;4.53;4.03;;;;;;;;;;6050972;23;20199;-85
2024/03/26 04:31:31;;;;;;;5.83;4.07;;;;;;;;;;6051845;23;20228;-83
2024/03/26 04:33:57;;;;;;;5.77;4.53;;;;;;;;;;6099222;23;20579;-84
2024/03/26 04:36:23;;;;;;;4.93;4.17;;;;;;;;;;6075587;23;20167;-85
2024/03/26 04:38:56;;;;;;;6.27;4.23;;;;;;;;;;6100150;23;20630;-86
2024/03/26 04:41:25;;;;;;;4.90;3.83;;;;;;;;;;6052299;23;20226;-87
2024/03/26 04:43:52;;;;;;;4.73;4.20;;;;;;;;;;6051414;23;20172;-83
2024/03/26 04:46:21;;;;;;;6.30;4.47;;;;;;;;;;6076336;23;20177;-86
2024/03/26 04:48:47;;;;;;;5.17;4.20;;;;;;;;;;6099462;23;20167;-83
2024/03/26 04:51:16;;;;;;;6.23;4.00;;;;;;;;;;6076573;23;20171;-85
2024/03/26 04:53:43;;;;;;;4.33;3.93;;;;;;;;;;6053340;23;20193;-84
2024/03/26 04:56:12;;;;;;;6.63;4.50;;;;;;;;;;6078540;23;20258;-84
2024/03/26 04:58:38;;;;;;;5.13;4.30;;;;;;;;;;6101049;23;20247;-83
2024/03/26 05:01:04;;;;;;;5.43;4.07;;;;;;;;;;6052962;23;20605;-85
2024/03/26 05:03:30;;;;;;;4.73;3.80;;;;;;;;;;6076666;23;20194;-83
2024/03/26 05:05:56;;;;;;;4.60;4.10;;;;;;;;;;6077023;23;20646;-83
2024/03/26 05:08:23;;;;;;;5.33;4.13;;;;;;;;;;6053107;23;20755;-85
2024/03/26 05:10:49;;;;;;;5.30;4.13;;;;;;;;;;6053266;23;20226;-84
2024/03/26 05:13:17;;;;;;;4.73;3.93;;;;;;;;;;6101495;23;20271;-83
2024/03/26 05:15:44;;;;;;;3.93;3.40;;;;;;;;;;6053627;23;20259;-84
2024/03/26 05:18:12;;;;;;;7.70;3.90;;;;;;;;;;6077238;23;20217;-84
2024/03/26 05:20:38;;;;;;;5.17;3.87;;;;;;;;;;6077068;23;20166;-84
2024/03/26 05:23:04;;;;;;;5.77;4.13;;;;;;;;;;6077259;23;20175;-84
2024/03/26 05:25:31;;;;;;;4.10;3.70;;;;;;;;;;6101239;23;20167;-83
2024/03/26 05:27:57;;;;;;;4.73;4.00;;;;;;;;;;6100920;23;20167;-81
2024/03/26 05:30:27;;;;;;;3.93;3.50;;;;;;;;;;6078397;23;20649;-85
2024/03/26 05:32:53;;;;;;;4.17;3.50;;;;;;;;;;6076950;23;20211;-84
2024/03/26 05:35:20;;;;;;;4.17;3.77;;;;;;;;;;6101132;23;20187;-83
2024/03/26 05:37:49;;;;;;;5.60;4.00;;;;;;;;;;6099688;23;20211;-83
2024/03/26 05:40:16;;;;;;;3.60;3.20;;;;;;;;;;6100594;23;20199;-83
2024/03/26 05:42:42;;;;;;;4.20;3.50;;;;;;;;;;6100971;23;20167;-83
2024/03/26 05:45:09;;;;;;;4.37;3.40;;;;;;;;;;6053089;23;20611;-84
2024/03/26 05:47:35;;;;;;;4.17;3.57;;;;;;;;;;6076685;23;20171;-85
2024/03/26 05:50:04;;;;;;;4.03;3.63;;;;;;;;;;6076525;23;20250;-83
2024/03/26 05:52:30;;;;;;;3.57;3.10;;;;;;;;;;6076369;23;20183;-83
2024/03/26 05:54:56;;;;;;;4.60;3.40;;;;;;;;;;6100357;23;20699;-87
2024/03/26 05:57:28;;;;;;;3.87;3.47;;;;;;;;;;6101086;23;20168;-83
2024/03/26 05:59:54;;;;;;;4.00;3.47;;;;;;;;;;6076278;23;20170;-84
2024/03/26 06:02:20;;;;;;;5.10;3.47;;;;;;;;;;6076200;23;20164;-84
2024/03/26 06:04:48;;;;;;;3.40;3.10;;;;;;;;;;6076803;23;20174;-83
2024/03/26 06:07:15;;;;;;;3.63;3.33;;;;;;;;;;6076233;23;20484;-83
2024/03/26 06:09:42;;;;;;;5.03;3.50;;;;;;;;;;6099718;23;20246;-83
2024/03/26 06:12:11;;;;;;;4.30;3.60;;;;;;;;;;6076105;23;20207;-84
2024/03/26 06:14:38;;;;;;;4.47;3.43;;;;;;;;;;6052744;23;20254;-82
2024/03/26 06:17:10;;;;;;;4.40;3.50;;;;;;;;;;6053689;23;20195;-84
2024/03/26 06:19:36;;;;;;;3.73;3.40;;;;;;;;;;6075280;23;20176;-83
2024/03/26 06:22:10;;;;;;;3.40;3.10;;;;;;;;;;6076088;23;20175;-84
2024/03/26 06:24:37;;;;;;;3.67;2.93;;;;;;;;;;6052219;23;20199;-82
2024/03/26 06:27:04;;;;;;;3.63;3.00;;;;;;;;;;6076697;23;20214;-83
2024/03/26 06:29:40;;;;;;;;;;;;;;;;;;;;;
2024/03/26 06:32:07;;;;;;;3.90;3.10;;;;;;;;;;6075902;23;20630;-82
2024/03/26 06:34:33;;;;;;;4.73;3.13;;;;;;;;;;6069285;23;20418;-80
2024/03/26 06:37:00;;;;;;;3.20;2.83;;;;;;;;;;6046367;23;20168;-81
2024/03/26 06:39:26;;;;;;;3.50;2.93;;;;;;;;;;6069262;23;20394;-80
2024/03/26 06:41:53;;;;;;;4.30;3.07;;;;;;;;;;6069782;23;20188;-80
2024/03/26 06:44:19;;;;;;;2.90;2.60;;;;;;;;;;6045463;23;20199;-80
2024/03/26 06:46:48;;;;;;;3.67;3.00;;;;;;;;;;6093760;23;20184;-81
2024/03/26 06:49:19;;;;;;;3.03;2.73;;;;;;;;;;6046406;23;20172;-81
2024/03/26 06:51:48;;;;;;;3.10;2.80;;;;;;;;;;6118713;23;20169;-81
2024/03/26 06:54:18;;;;;;;3.90;3.20;;;;;;;;;;6044363;23;20218;-80
2024/03/26 06:56:45;;;;;;;3.77;2.70;;;;;;;;;;6069479;23;20194;-81
2024/03/26 06:59:11;;;;;;;3.23;2.93;;;;;;;;;;6069358;23;20172;-82
2024/03/26 07:01:37;;;;;;;3.60;2.87;;;;;;;;;;6044928;23;20200;-82
2024/03/26 07:04:03;;;;;;;3.90;2.90;;;;;;;;;;6069607;23;20491;-81
2024/03/26 07:06:30;;;;;;;3.07;2.57;;;;;;;;;;6045781;23;20168;-82
2024/03/26 07:08:57;;;;;;;3.90;2.63;;;;;;;;;;6093542;23;20168;-81
2024/03/26 07:11:23;;;;;;;3.87;2.60;;;;;;;;;;6068986;23;20196;-83
2024/03/26 07:13:52;;;;;;;6.20;2.97;;;;;;;;;;6045991;23;20360;-82
2024/03/26 07:16:21;;;;;;;4.37;3.00;;;;;;;;;;6069302;23;20172;-82
2024/03/26 07:18:50;;;;;;;3.20;2.90;;;;;;;;;;6046024;23;20164;-81
2024/03/26 07:21:17;;;;;;;3.13;2.83;;;;;;;;;;6092279;23;20248;-81
2024/03/26 07:23:48;;;;;;;4.07;2.83;;;;;;;;;;6069681;23;20168;-81
2024/03/26 07:26:14;;;;;;;4.17;2.80;;;;;;;;;;6092788;23;20247;-82
2024/03/26 07:28:43;;;;;;;3.40;3.10;;;;;;;;;;6068125;23;20283;-81
2024/03/26 07:31:12;;;;;;;3.10;2.60;;;;;;;;;;6045320;23;20669;-80
2024/03/26 07:33:38;;;;;;;2.87;2.20;;;;;;;;;;6068357;23;20256;-81
2024/03/26 07:36:04;;;;;;;5.17;2.20;;;;;;;;;;6068591;23;20611;-81
2024/03/26 07:38:30;;;;;;;5.10;2.30;;;;;;;;;;6045254;23;20172;-81
2024/03/26 07:41:02;;;;;;;2.47;2.20;;;;;;;;;;6068321;23;20588;-82
2024/03/26 07:43:28;;;;;;;2.63;2.10;;;;;;;;;;6068571;23;20516;-80
2024/03/26 07:45:57;;;;;;;4.10;2.43;;;;;;;;;;6092480;23;20180;-80
2024/03/26 07:48:25;;;;;;;2.53;2.00;;;;;;;;;;6067958;23;20192;-81
2024/03/26 07:50:51;;;;;;;2.47;2.00;;;;;;;;;;6092823;23;20704;-81
2024/03/26 07:53:17;;;;;;;2.23;1.90;;;;;;;;;;6092524;23;20267;-80
2024/03/26 07:55:43;;;;;;;2.17;2.00;;;;;;;;;;6093218;23;20180;-81
2024/03/26 07:58:14;;;;;;;4.03;2.40;;;;;;;;;;6092994;23;20164;-82
2024/03/26 08:00:41;;;;;;;3.60;1.83;;;;;;;;;;6092400;23;20180;-81
2024/03/26 08:03:07;;;;;;;2.97;2.00;;;;;;;;;;6117177;23;20686;-81
2024/03/26 08:05:33;;;;;;;3.37;2.00;;;;;;;;;;6069264;23;20165;-82
2024/03/26 08:08:12;;;;;;;2.40;2.00;;;;;;;;;;6093410;23;20517;-81
2024/03/26 08:10:38;;;;;;;3.53;2.20;;;;;;;;;;6066366;23;20180;-82
2024/03/26 08:13:05;;;;;;;2.90;2.00;;;;;;;;;;6089087;23;20596;-81
2024/03/26 08:15:31;;;;;;;3.20;2.10;;;;;;;;;;6065801;23;20231;-81
2024/03/26 08:17:57;;;;;;;3.53;2.00;;;;;;;;;;6043601;23;20192;-82
2024/03/26 08:20:23;;;;;;;2.80;1.80;;;;;;;;;;6092715;23;20564;-81
2024/03/26 08:22:52;;;;;;;4.03;1.90;;;;;;;;;;6046324;23;20252;-81
2024/03/26 08:25:21;;;;;;;2.30;2.00;;;;;;;;;;6069186;23;20247;-80
2024/03/26 08:27:47;;;;;;;1.90;1.70;;;;;;;;;;6094755;23;20173;-82
2024/03/26 08:30:15;;;;;;;1.87;1.77;;;;;;;;;;6046141;23;20199;-81
2024/03/26 08:32:47;;;;;;;3.13;1.73;;;;;;;;;;6093793;23;20291;-81
2024/03/26 08:35:13;;;;;;;4.43;1.93;;;;;;;;;;6046713;23;20815;-82
2024/03/26 08:37:39;;;;;;;3.93;1.80;;;;;;;;;;6090517;23;20691;-81
2024/03/26 08:40:08;;;;;;;2.00;1.70;;;;;;;;;;6070661;23;20263;-81
2024/03/26 08:42:37;;;;;;;2.53;1.60;;;;;;;;;;6070752;23;20223;-82
2024/03/26 08:45:08;;;;;;;2.50;1.70;;;;;;;;;;6070466;23;20247;-81
2024/03/26 08:47:38;;;;;;;1.97;1.50;;;;;;;;;;6094966;23;20164;-81
2024/03/26 08:50:04;;;;;;;2.90;1.50;;;;;;;;;;6070797;23;20199;-82
2024/03/26 08:52:30;;;;;;;2.23;1.40;;;;;;;;;;6093342;23;20343;-82
2024/03/26 08:54:56;;;;;;;3.53;1.37;;;;;;;;;;6093587;23;20176;-81
2024/03/26 08:57:23;;;;;;;5.13;1.50;;;;;;;;;;6070351;23;20192;-83
2024/03/26 08:59:51;;;;;;;2.27;1.23;;;;;;;;;;6045804;23;20256;-81
2024/03/26 09:02:20;;;;;;;3.53;1.40;;;;;;;;;;6071712;23;20232;-81
2024/03/26 09:04:53;;;;;;;1.33;1.20;;;;;;;;;;6071134;23;20169;-81
2024/03/26 09:07:19;;;;;;;1.40;1.30;;;;;;;;;;6047268;23;20168;-82
2024/03/26 09:09:47;;;;;;;1.53;1.40;;;;;;;;;;6070575;23;20173;-81
2024/03/26 09:12:13;;;;;;;4.93;1.40;;;;;;;;;;6069320;23;20161;-82
2024/03/26 09:14:38;;;;;;;2.30;1.20;;;;;;;;;;6067041;23;20167;-82
2024/03/26 09:17:04;;;;;;;2.30;1.27;;;;;;;;;;6068202;23;20251;-82
2024/03/26 09:19:30;;;;;;;1.60;1.50;;;;;;;;;;6092851;23;20173;-81
2024/03/26 09:21:56;;;;;;;1.63;1.50;;;;;;;;;;6068882;23;20212;-81
2024/03/26 09:24:22;;;;;;;1.63;1.47;;;;;;;;;;6045052;23;20252;-82
2024/03/26 09:26:49;;;;;;;3.53;1.60;;;;;;;;;;6093194;23;20202;-81
2024/03/26 09:29:18;;;;;;;3.33;1.60;;;;;;;;;;6070090;23;20186;-81
2024/03/26 09:31:55;;;;;;;1.97;1.37;;;;;;;;;;6092200;23;20177;-82
2024/03/26 09:34:22;;;;;;;2.10;1.30;;;;;;;;;;6070038;23;20690;-82
2024/03/26 09:36:51;;;;;;;3.07;1.40;;;;;;;;;;6046692;23;20176;-81
2024/03/26 09:39:17;;;;;;;2.50;1.10;;;;;;;;;;6070603;23;20186;-81
2024/03/26 09:41:48;;;;;;;2.20;1.20;;;;;;;;;;6070851;23;20194;-81
2024/03/26 09:44:14;;;;;;;1.80;0.90;;;;;;;;;;6070419;23;20204;-81
2024/03/26 09:46:42;;;;;;;1.50;0.90;;;;;;;;;;6094348;23;20178;-82
2024/03/26 09:49:14;;;;;;;0.80;0.70;;;;;;;;;;6094464;23;20165;-82
2024/03/26 09:51:43;;;;;;;3.00;1.40;;;;;;;;;;6070312;23;20169;-81
2024/03/26 09:54:09;;;;;;;2.13;1.00;;;;;;;;;;6094099;23;20210;-82
2024/03/26 09:56:44;;;;;;;1.50;0.80;;;;;;;;;;6095033;23;20168;-81
2024/03/26 09:59:14;;;;;;;0.80;0.70;;;;;;;;;;6094200;23;20232;-81
2024/03/26 10:01:40;;;;;;;2.70;1.00;;;;;;;;;;6094175;23;20172;-82
2024/03/26 10:04:06;;;;;;;2.50;0.93;;;;;;;;;;6093501;23;20666;-82
2024/03/26 10:06:32;;;;;;;2.80;0.80;;;;;;;;;;6046402;23;20256;-82
2024/03/26 10:09:00;;;;;;;4.80;0.90;;;;;;;;;;6069704;23;20648;-82
2024/03/26 10:11:26;;;;;;;1.43;0.93;;;;;;;;;;6069908;23;20180;-81
2024/03/26 10:13:52;;;;;;;2.87;0.90;;;;;;;;;;6069861;23;20192;-81
2024/03/26 10:16:18;;;;;;;1.80;0.90;;;;;;;;;;6070173;23;20184;-82
2024/03/26 10:18:45;;;;;;;2.20;0.80;;;;;;;;;;6069886;23;20251;-81
2024/03/26 10:21:12;;;;;;;1.00;0.80;;;;;;;;;;6069864;23;20172;-80
2024/03/26 10:23:38;;;;;;;1.33;0.80;;;;;;;;;;6069880;23;20192;-81
2024/03/26 10:26:06;;;;;;;0.60;0.60;;;;;;;;;;6070080;23;20231;-81
2024/03/26 10:28:34;;;;;;;0.80;0.73;;;;;;;;;;6069855;23;20165;-82
2024/03/26 10:31:00;;;;;;;1.60;0.80;;;;;;;;;;6093325;23;20234;-81
2024/03/26 10:33:29;;;;;;;2.30;0.83;;;;;;;;;;6068389;23;20775;-82
2024/03/26 10:35:56;;;;;;;1.67;0.70;;;;;;;;;;6067856;23;20314;-81
2024/03/26 10:38:22;;;;;;;0.83;0.60;;;;;;;;;;6046107;23;20184;-81
2024/03/26 10:41:02;;;;;;;1.77;0.80;;;;;;;;;;6045825;23;20223;-81
2024/03/26 10:43:29;;;;;;;0.83;0.77;;;;;;;;;;6069561;23;20168;-82
2024/03/26 10:45:59;;;;;;;2.80;0.80;;;;;;;;;;6069621;23;20244;-81
2024/03/26 10:48:29;;;;;;;1.60;1.20;;;;;;;;;;6069905;23;20164;-81
2024/03/26 10:50:55;;;;;;;2.23;0.57;;;;;;;;;;6045837;23;20177;-82
2024/03/26 10:53:23;;;;;;;0.93;0.70;;;;;;;;;;6045716;23;20271;-82
2024/03/26 10:55:52;;;;;;;2.53;0.87;;;;;;;;;;6045404;23;20177;-82
2024/03/26 10:58:18;;;;;;;2.07;0.90;;;;;;;;;;6045735;23;20222;-82
2024/03/26 11:00:45;;;;;;;1.03;0.77;;;;;;;;;;6045308;23;20176;-82
2024/03/26 11:03:14;;;;;;;1.87;0.70;;;;;;;;;;6069264;23;20283;-82
2024/03/26 11:05:40;;;;;;;5.23;0.93;;;;;;;;;;6069688;23;20165;-81
2024/03/26 11:08:16;;;;;;;1.30;0.80;;;;;;;;;;6069118;23;20234;-82
2024/03/26 11:11:02;;;;;;;0.83;0.83;;;;;;;;;;6067128;23;20175;-82
2024/03/26 11:13:30;;;;;;;1.37;1.10;;;;;;;;;;6068507;23;20227;-82
2024/03/26 11:15:56;;;;;;;1.60;0.90;;;;;;;;;;6069267;23;20177;-82
2024/03/26 11:18:26;;;;;;;2.30;0.70;;;;;;;;;;6070045;23;20260;-82
2024/03/26 11:20:55;;;;;;;2.27;0.83;;;;;;;;;;6067994;23;20168;-82
2024/03/26 11:23:30;;;;;;;2.60;0.80;;;;;;;;;;6046572;23;20648;-82
2024/03/26 11:25:56;;;;;;;1.23;0.70;;;;;;;;;;6069222;23;20177;-82
2024/03/26 11:28:22;;;;;;;1.00;0.87;;;;;;;;;;6045423;23;20180;-81
2024/03/26 11:30:49;;;;;;;1.23;1.00;;;;;;;;;;6069029;23;20172;-82
2024/03/26 11:33:24;;;;;;;2.87;0.90;;;;;;;;;;6073535;23;20208;-82
2024/03/26 11:35:55;;;;;;;1.27;0.80;;;;;;;;;;6044942;23;20495;-82
2024/03/26 11:38:22;;;;;;;1.13;0.90;;;;;;;;;;6093044;23;20168;-82
2024/03/26 11:40:48;;;;;;;3.13;1.00;;;;;;;;;;6044865;23;20184;-81
2024/03/26 11:43:18;;;;;;;0.80;0.80;;;;;;;;;;6092714;23;20681;-81
2024/03/26 11:45:47;;;;;;;1.50;0.80;;;;;;;;;;6068906;23;20172;-82
2024/03/26 11:48:16;;;;;;;3.73;0.80;;;;;;;;;;6045375;23;20272;-81
2024/03/26 11:50:48;;;;;;;1.37;0.70;;;;;;;;;;6092392;23;20172;-81
2024/03/26 11:53:15;;;;;;;2.30;1.10;;;;;;;;;;6045079;23;20212;-81
2024/03/26 11:55:41;;;;;;;3.50;0.80;;;;;;;;;;6044612;23;20701;-81
2024/03/26 11:58:07;;;;;;;2.23;1.07;;;;;;;;;;6068488;23;20172;-81
2024/03/26 12:00:35;;;;;;;1.67;0.70;;;;;;;;;;6045342;23;20168;-81
2024/03/26 12:03:02;;;;;;;1.17;0.60;;;;;;;;;;6070723;23;20565;-81
2024/03/26 12:05:31;;;;;;;1.20;1.00;;;;;;;;;;6070602;23;20161;-81
2024/03/26 12:08:01;;;;;;;2.73;0.90;;;;;;;;;;6071710;23;20569;-81
2024/03/26 12:10:32;;;;;;;1.80;0.90;;;;;;;;;;6094782;23;20172;-81
2024/03/26 12:12:58;;;;;;;1.50;0.70;;;;;;;;;;6047216;23;20185;-81
2024/03/26 12:15:25;;;;;;;2.20;0.90;;;;;;;;;;6070505;23;20180;-81
2024/03/26 12:17:51;;;;;;;2.33;0.90;;;;;;;;;;6070807;23;20169;-82
2024/03/26 12:20:17;;;;;;;1.00;0.90;;;;;;;;;;6045688;23;20255;-84
2024/03/26 12:22:47;;;;;;;1.20;0.80;;;;;;;;;;6093894;23;20201;-81
2024/03/26 12:25:16;;;;;;;1.67;0.80;;;;;;;;;;6094724;23;20185;-81
2024/03/26 12:27:45;;;;;;;5.83;1.03;;;;;;;;;;6119363;23;20178;-81
2024/03/26 12:30:11;;;;;;;5.83;1.10;;;;;;;;;;6046573;23;20178;-81
2024/03/26 12:32:40;;;;;;;1.93;1.23;;;;;;;;;;6097090;23;20194;-82
2024/03/26 12:35:08;;;;;;;2.80;0.97;;;;;;;;;;6051298;23;20258;-81
2024/03/26 12:37:40;;;;;;;1.87;0.80;;;;;;;;;;6100071;23;20680;-81
2024/03/26 12:40:07;;;;;;;0.80;0.70;;;;;;;;;;6075245;23;20177;-82
2024/03/26 12:42:35;;;;;;;0.90;0.80;;;;;;;;;;6099547;23;20174;-82
2024/03/26 12:45:01;;;;;;;2.63;0.90;;;;;;;;;;6051647;23;20204;-82
2024/03/26 12:47:28;;;;;;;1.63;0.80;;;;;;;;;;6075401;23;20216;-82
2024/03/26 12:49:55;;;;;;;3.47;1.10;;;;;;;;;;6075309;23;20253;-82
2024/03/26 12:52:29;;;;;;;1.13;0.80;;;;;;;;;;6076718;23;20170;-82
2024/03/26 12:54:59;;;;;;;1.00;0.80;;;;;;;;;;6099160;23;20166;-82
2024/03/26 12:57:25;;;;;;;3.33;0.80;;;;;;;;;;6051749;23;20236;-82
2024/03/26 12:59:51;;;;;;;1.00;0.80;;;;;;;;;;6075186;23;20224;-81
2024/03/26 13:02:17;;;;;;;1.73;0.93;;;;;;;;;;6075505;23;20177;-81
2024/03/26 13:04:51;;;;;;;1.03;0.60;;;;;;;;;;6075300;23;20276;-81
2024/03/26 13:07:17;;;;;;;2.70;0.70;;;;;;;;;;6051302;23;20161;-82
2024/03/26 13:09:43;;;;;;;1.97;1.10;;;;;;;;;;6099505;23;20216;-81
2024/03/26 13:12:09;;;;;;;1.30;1.20;;;;;;;;;;6099123;23;20169;-82
2024/03/26 13:14:34;;;;;;;0.97;0.70;;;;;;;;;;6074925;23;20270;-81
2024/03/26 13:17:00;;;;;;;1.10;0.80;;;;;;;;;;6075505;23;20213;-82
2024/03/26 13:19:27;;;;;;;2.27;1.60;;;;;;;;;;6051117;23;20235;-82
2024/03/26 13:21:53;;;;;;;1.87;1.70;;;;;;;;;;6074720;23;20164;-82
2024/03/26 13:24:19;;;;;;;1.17;0.80;;;;;;;;;;6051689;23;20206;-81
2024/03/26 13:26:45;;;;;;;1.03;0.93;;;;;;;;;;6051404;23;20256;-82
2024/03/26 13:29:10;;;;;;;0.80;0.80;;;;;;;;;;6075221;23;20173;-82
2024/03/26 13:31:36;;;;;;;1.27;1.00;;;;;;;;;;6051793;23;20179;-82
2024/03/26 13:34:02;;;;;;;2.10;1.00;;;;;;;;;;6074519;23;20238;-82
2024/03/26 13:36:27;;;;;;;1.80;0.87;;;;;;;;;;6075241;23;20160;-82
2024/03/26 13:38:56;;;;;;;1.83;0.90;;;;;;;;;;6075213;23;20186;-82
2024/03/26 13:41:23;;;;;;;2.90;1.00;;;;;;;;;;6098820;23;20267;-82
2024/03/26 13:43:51;;;;;;;1.30;0.90;;;;;;;;;;6099776;23;20172;-81
2024/03/26 13:46:17;;;;;;;1.00;0.90;;;;;;;;;;6098781;23;20164;-82
2024/03/26 13:48:46;;;;;;;2.30;0.80;;;;;;;;;;6099418;23;20172;-82
2024/03/26 13:51:14;;;;;;;2.27;0.70;;;;;;;;;;6098934;23;20207;-82
2024/03/26 13:53:40;;;;;;;1.57;0.70;;;;;;;;;;6098879;23;20211;-82
2024/03/26 13:56:05;;;;;;;1.43;0.60;;;;;;;;;;6097531;23;20180;-81
2024/03/26 13:58:32;;;;;;;2.30;0.53;;;;;;;;;;6051072;23;20175;-82
2024/03/26 14:00:57;;;;;;;3.93;0.80;;;;;;;;;;6074760;23;20168;-82
2024/03/26 14:03:23;;;;;;;1.53;0.90;;;;;;;;;;6075114;23;20164;-82
2024/03/26 14:05:49;;;;;;;3.40;0.93;;;;;;;;;;6074388;23;20620;-82
2024/03/26 14:08:15;;;;;;;1.97;0.67;;;;;;;;;;6074646;23;20179;-81
2024/03/26 14:10:40;;;;;;;1.97;0.90;;;;;;;;;;6074308;23;20768;-81
2024/03/26 14:13:06;;;;;;;1.93;0.70;;;;;;;;;;6074653;23;20243;-82
2024/03/26 14:15:32;;;;;;;1.13;0.60;;;;;;;;;;6074242;23;20192;-82
2024/03/26 14:17:57;;;;;;;1.57;0.70;;;;;;;;;;6098410;23;20189;-81
2024/03/26 14:20:26;;;;;;;1.13;0.80;;;;;;;;;;6074312;23;20171;-82
2024/03/26 14:22:52;;;;;;;0.77;0.70;;;;;;;;;;6097737;23;20174;-82
2024/03/26 14:25:18;;;;;;;3.60;0.93;;;;;;;;;;6074372;23;20161;-82
2024/03/26 14:27:46;;;;;;;2.17;0.70;;;;;;;;;;6098474;23;20173;-82
2024/03/26 14:30:13;;;;;;;2.57;0.90;;;;;;;;;;6073976;23;20259;-82
2024/03/26 14:32:39;;;;;;;2.57;0.90;;;;;;;;;;6050063;23;20256;-82
2024/03/26 14:35:06;;;;;;;1.30;0.80;;;;;;;;;;6050959;23;20174;-82
2024/03/26 14:37:32;;;;;;;1.10;0.97;;;;;;;;;;6050642;23;20168;-83
2024/03/26 14:39:59;;;;;;;2.47;1.00;;;;;;;;;;6074298;23;20157;-83
2024/03/26 14:42:25;;;;;;;2.33;1.00;;;;;;;;;;6074368;23;20165;-82
2024/03/26 14:44:54;;;;;;;2.60;1.23;;;;;;;;;;6098501;23;20164;-82